Au Gres, Michigan
Current Conditions -  °F | °C
As of 8:54 AM on Thursday 27 Nov 2014 (Local Time) from KOSC Reporting Station
Overcast Overcast  
Wind Chill: 17°   Ceiling: 6500
Heat Index: 27°   Visibility: 10mi
Dew Point: 25°   Wind: 12mph
Humidity: 91%   Direction: 330°NNW
Pressure: 30.1"   Gusts: NA
Location:  44.05°N, 83.7°W
Report Text: KOSC 271354Z AUTO 33010KT 10SM SCT043 OVC065 M02/M03 A3010 RMK AO2 T10271040
Loading
Personal Weather Stations






























Interactive Weather Map New forecast layout! Learn more

10-Day Weather Forecast

Advertisements
Track Severe Weather on mobile